createdAt,value
2023-01-23T00:01:33.493Z,25.08
2023-01-23T00:04:00.955Z,23.98
2023-01-23T00:06:28.845Z,24.80
2023-01-23T00:08:57.000Z,25.98
2023-01-23T00:11:27.684Z,26.42
2023-01-23T00:13:54.913Z,25.27
2023-01-23T00:16:24.660Z,24.15
2023-01-23T00:18:52.094Z,25.98
2023-01-23T00:21:23.439Z,26.80
2023-01-23T00:23:58.289Z,27.75
2023-01-23T00:26:29.270Z,25.65
2023-01-23T00:28:56.916Z,27.83
2023-01-23T00:31:28.800Z,25.45
2023-01-23T00:34:00.101Z,27.48
2023-01-23T00:36:36.125Z,26.70
2023-01-23T00:39:06.909Z,25.00
2023-01-23T00:41:34.576Z,27.25
2023-01-23T00:44:01.440Z,26.60
2023-01-23T00:46:28.347Z,27.45
2023-01-23T00:48:55.482Z,25.67
2023-01-23T00:51:22.667Z,24.92
2023-01-23T00:53:49.569Z,25.45
2023-01-23T00:56:16.802Z,25.00
2023-01-23T00:58:45.185Z,25.10
2023-01-23T01:01:14.055Z,24.67
2023-01-23T01:03:40.972Z,26.13
2023-01-23T01:06:08.602Z,27.23
2023-01-23T01:08:35.476Z,26.10
2023-01-23T01:11:02.410Z,27.98
2023-01-23T01:13:29.285Z,25.90
2023-01-23T01:15:56.962Z,27.13
2023-01-23T01:18:24.065Z,26.63
2023-01-23T01:20:51.589Z,24.95
2023-01-23T01:23:19.463Z,24.05
2023-01-23T01:25:47.422Z,23.58
2023-01-23T01:28:14.535Z,22.33
2023-01-23T01:30:41.721Z,24.55
2023-01-23T01:33:09.293Z,23.40
2023-01-23T01:35:36.085Z,26.75
2023-01-23T01:38:03.333Z,24.73
2023-01-23T01:40:34.400Z,23.42
2023-01-23T01:43:06.283Z,24.60
2023-01-23T01:46:07.110Z,23.77
2023-01-23T01:48:46.838Z,23.65
2023-01-23T01:51:32.743Z,22.52
2023-01-23T01:54:05.792Z,24.55
2023-01-23T01:56:40.211Z,23.83
2023-01-23T01:59:08.979Z,21.73
2023-01-23T02:01:36.244Z,23.17
2023-01-23T02:04:03.479Z,24.08
2023-01-23T02:06:30.378Z,22.85
2023-01-23T02:09:12.193Z,23.55
2023-01-23T02:11:39.214Z,25.10
2023-01-23T02:14:06.865Z,24.63
2023-01-23T02:16:41.226Z,24.08
2023-01-23T02:19:40.057Z,23.92
2023-01-23T02:22:40.076Z,22.65
2023-01-23T02:25:27.235Z,23.35
2023-01-23T02:27:54.508Z,23.73
2023-01-23T02:30:22.188Z,22.52
2023-01-23T02:32:49.228Z,23.48
2023-01-23T02:35:26.519Z,23.65
2023-01-23T02:37:56.603Z,23.73
2023-01-23T02:40:38.743Z,25.17
2023-01-23T02:43:09.732Z,25.25
2023-01-23T02:45:36.953Z,26.70
2023-01-23T02:48:06.198Z,26.92
2023-01-23T02:50:32.958Z,25.38
2023-01-23T02:52:59.978Z,25.17
2023-01-23T02:55:30.049Z,22.63
2023-01-23T02:58:15.887Z,24.27
2023-01-23T03:00:43.958Z,24.48
2023-01-23T03:03:10.817Z,25.25
2023-01-23T03:05:38.506Z,25.00
2023-01-23T03:08:05.740Z,23.75
2023-01-23T03:10:32.578Z,25.63
2023-01-23T03:13:03.482Z,24.02
2023-01-23T03:15:31.739Z,24.35
2023-01-23T03:17:58.507Z,22.10
2023-01-23T03:20:27.005Z,24.08
2023-01-23T03:22:54.775Z,24.00
2023-01-23T03:25:21.974Z,24.95
2023-01-23T03:27:49.488Z,24.95
2023-01-23T03:30:17.297Z,24.70
2023-01-23T03:32:46.068Z,25.67
2023-01-23T03:35:14.526Z,25.42
2023-01-23T03:37:41.685Z,25.17
2023-01-23T03:40:35.627Z,25.63
2023-01-23T03:43:02.798Z,25.88
2023-01-23T03:45:29.781Z,24.00
2023-01-23T03:47:56.612Z,24.40
2023-01-23T03:50:23.647Z,23.50
2023-01-23T03:52:50.393Z,25.55
2023-01-23T03:55:17.537Z,26.35
2023-01-23T03:57:44.315Z,25.08
2023-01-23T04:00:13.879Z,24.70
2023-01-23T04:02:41.452Z,26.20
2023-01-23T04:05:08.711Z,27.13
2023-01-23T04:07:35.485Z,27.30
2023-01-23T04:10:02.268Z,25.90
2023-01-23T04:12:29.317Z,26.10
2023-01-23T04:14:56.253Z,25.27
2023-01-23T04:17:23.042Z,26.00
2023-01-23T04:19:49.851Z,25.60
2023-01-23T04:22:16.638Z,25.23
2023-01-23T04:24:43.403Z,25.02
2023-01-23T04:27:10.466Z,24.88
2023-01-23T04:29:37.241Z,25.20
2023-01-23T04:32:05.319Z,25.42
2023-01-23T04:34:32.244Z,26.73
2023-01-23T04:36:59.052Z,25.58
2023-01-23T04:39:25.846Z,25.77
2023-01-23T04:41:52.613Z,27.02
2023-01-23T04:44:22.265Z,26.48
2023-01-23T04:46:54.366Z,26.15
2023-01-23T04:49:23.064Z,28.20
2023-01-23T04:51:51.988Z,26.52
2023-01-23T04:54:20.322Z,26.85
2023-01-23T04:56:48.161Z,28.50
2023-01-23T04:59:16.831Z,26.23
2023-01-23T05:01:44.630Z,25.83
2023-01-23T05:04:11.532Z,27.90
2023-01-23T05:06:38.412Z,29.48
2023-01-23T05:09:05.739Z,27.38
2023-01-23T05:11:32.760Z,26.75
2023-01-23T05:13:59.660Z,28.05
2023-01-23T05:16:26.413Z,29.15
2023-01-23T05:18:53.210Z,27.27
2023-01-23T05:21:19.979Z,27.40
2023-01-23T05:23:46.758Z,28.30
2023-01-23T05:26:13.898Z,28.27
2023-01-23T05:28:40.677Z,26.63
2023-01-23T05:31:08.019Z,26.45
2023-01-23T05:33:35.187Z,29.80
2023-01-23T05:36:02.634Z,28.20
2023-01-23T05:38:29.864Z,30.30
2023-01-23T05:40:56.935Z,28.17
2023-01-23T05:43:23.758Z,26.85
2023-01-23T05:45:50.702Z,27.65
2023-01-23T05:48:17.516Z,26.85
2023-01-23T05:50:44.335Z,31.83
2023-01-23T05:53:11.150Z,29.65
2023-01-23T05:55:39.233Z,32.15
2023-01-23T05:58:06.406Z,31.27
2023-01-23T06:00:33.313Z,31.30
2023-01-23T06:03:00.105Z,30.45
2023-01-23T06:05:27.249Z,30.30
2023-01-23T06:07:54.012Z,29.85
2023-01-23T06:10:21.318Z,29.92
2023-01-23T06:12:48.281Z,29.33
2023-01-23T06:15:15.076Z,29.42
2023-01-23T06:17:42.077Z,29.20
2023-01-23T06:20:11.008Z,29.45
2023-01-23T06:22:37.961Z,31.25
2023-01-23T06:25:05.289Z,27.52
2023-01-23T06:27:32.165Z,26.70
2023-01-23T06:29:58.913Z,30.05
2023-01-23T06:32:25.839Z,28.80
2023-01-23T06:34:52.614Z,29.73
2023-01-23T06:37:19.368Z,31.20
2023-01-23T06:39:46.191Z,28.67
2023-01-23T06:42:13.250Z,30.33
2023-01-23T06:44:40.069Z,33.22
2023-01-23T06:47:06.839Z,34.72
2023-01-23T06:49:33.782Z,31.83
2023-01-23T06:52:00.696Z,32.40
2023-01-23T06:54:27.577Z,31.92
2023-01-23T06:56:54.642Z,30.08
2023-01-23T06:59:21.424Z,29.23
2023-01-23T07:01:48.279Z,30.05
2023-01-23T07:04:15.121Z,31.35
2023-01-23T07:06:42.030Z,31.95
2023-01-23T07:09:08.949Z,27.50
2023-01-23T07:11:37.460Z,28.42
2023-01-23T07:14:04.208Z,27.55
2023-01-23T07:16:31.066Z,28.85
2023-01-23T07:18:59.198Z,29.83
2023-01-23T07:21:26.241Z,28.27
2023-01-23T07:23:53.086Z,27.88
2023-01-23T07:26:19.950Z,30.25
2023-01-23T07:28:46.892Z,28.65
2023-01-23T07:31:14.026Z,28.08
2023-01-23T07:33:41.062Z,28.90
2023-01-23T07:36:09.258Z,29.67
2023-01-23T07:38:36.382Z,28.63
2023-01-23T07:41:03.131Z,29.75
2023-01-23T07:43:29.835Z,29.13
2023-01-23T07:46:02.901Z,28.02
2023-01-23T07:48:30.288Z,28.33
2023-01-23T07:50:57.181Z,27.75
2023-01-23T07:53:23.987Z,30.73
2023-01-23T07:55:50.898Z,27.98
2023-01-23T07:58:17.792Z,28.25
2023-01-23T08:00:45.533Z,26.67
2023-01-23T08:03:12.418Z,30.38
2023-01-23T08:05:39.168Z,28.63
2023-01-23T08:08:13.412Z,31.25
2023-01-23T08:10:41.635Z,28.48
2023-01-23T08:13:08.846Z,30.58
2023-01-23T08:15:38.987Z,30.23
2023-01-23T08:18:05.935Z,30.85
2023-01-23T08:20:32.741Z,30.40
2023-01-23T08:23:00.854Z,31.58
2023-01-23T08:25:27.820Z,29.90
2023-01-23T08:27:54.579Z,32.28
2023-01-23T08:30:21.972Z,30.85
2023-01-23T08:32:49.232Z,30.73
2023-01-23T08:35:16.196Z,31.45
2023-01-23T08:37:43.151Z,31.88
2023-01-23T08:40:11.015Z,32.55
2023-01-23T08:42:37.747Z,29.98
2023-01-23T08:45:05.289Z,32.83
2023-01-23T08:47:36.755Z,32.08
2023-01-23T08:50:05.777Z,32.22
2023-01-23T08:52:34.865Z,32.33
2023-01-23T08:55:01.761Z,31.70
2023-01-23T08:57:28.776Z,32.88
2023-01-23T08:59:55.551Z,31.55
2023-01-23T09:02:22.741Z,29.90
2023-01-23T09:04:50.805Z,31.17
2023-01-23T09:07:17.661Z,32.10
2023-01-23T09:09:44.449Z,30.73
2023-01-23T09:12:11.243Z,31.48
2023-01-23T09:14:38.120Z,30.73
2023-01-23T09:17:06.190Z,30.55
2023-01-23T09:19:33.303Z,31.85
2023-01-23T09:22:00.503Z,30.00
2023-01-23T09:24:27.374Z,31.70
2023-01-23T09:26:54.162Z,31.58
2023-01-23T09:29:20.991Z,31.20
2023-01-23T09:31:47.828Z,31.45
2023-01-23T09:34:17.046Z,30.80
2023-01-23T09:36:44.250Z,30.33
2023-01-23T09:39:12.571Z,30.50
2023-01-23T09:41:41.401Z,29.25
2023-01-23T09:44:49.777Z,30.38
2023-01-23T09:47:34.861Z,29.73
2023-01-23T09:50:08.889Z,31.35
2023-01-23T09:53:05.028Z,31.47
2023-01-23T09:55:49.796Z,29.52
2023-01-23T09:58:29.019Z,31.00
2023-01-23T10:00:55.978Z,29.77
2023-01-23T10:03:29.053Z,30.40
2023-01-23T10:06:25.020Z,31.60
2023-01-23T10:09:37.030Z,29.70
2023-01-23T10:12:30.100Z,30.55
2023-01-23T10:15:34.368Z,32.08
2023-01-23T10:18:54.486Z,30.50
2023-01-23T10:21:34.583Z,31.48
2023-01-23T10:24:23.737Z,33.42
2023-01-23T10:26:50.939Z,31.13
2023-01-23T10:29:38.325Z,32.50
2023-01-23T10:32:22.573Z,32.35
2023-01-23T10:34:56.348Z,24.48
2023-01-23T10:37:51.328Z,31.38
2023-01-23T10:40:40.604Z,31.60
2023-01-23T10:43:21.083Z,29.02
2023-01-23T10:45:50.048Z,30.33
2023-01-23T10:48:36.323Z,30.33
2023-01-23T10:51:04.483Z,30.70
2023-01-23T10:53:31.320Z,30.63
2023-01-23T10:56:00.984Z,30.67
2023-01-23T10:58:38.857Z,30.85
2023-01-23T11:01:18.863Z,29.58
2023-01-23T11:03:46.263Z,29.10
2023-01-23T11:06:19.247Z,27.63
2023-01-23T11:09:04.641Z,28.20
2023-01-23T11:11:33.413Z,26.73
2023-01-23T11:14:16.996Z,28.50
2023-01-23T11:16:44.337Z,27.75
2023-01-23T11:19:19.842Z,29.25
2023-01-23T11:21:59.825Z,27.45
2023-01-23T11:24:41.143Z,26.55
2023-01-23T11:27:20.449Z,26.42
2023-01-23T11:30:09.661Z,24.77
2023-01-23T11:33:09.357Z,24.25
2023-01-23T11:35:54.097Z,22.17
2023-01-23T11:38:30.838Z,24.38
2023-01-23T11:40:58.365Z,22.88
2023-01-23T11:43:25.261Z,22.77
2023-01-23T11:46:50.305Z,23.25
2023-01-23T11:49:56.213Z,21.80
2023-01-23T11:52:28.851Z,22.42
2023-01-23T11:55:29.740Z,21.00
2023-01-23T11:58:39.704Z,21.77
2023-01-23T12:05:00.834Z,22.65
2023-01-23T12:07:27.974Z,22.20
2023-01-23T12:10:26.709Z,20.52
2023-01-23T12:13:15.433Z,20.70
2023-01-23T12:16:14.167Z,19.70
2023-01-23T12:19:23.065Z,21.48
2023-01-23T12:22:15.354Z,21.90
2023-01-23T12:25:00.677Z,22.10
2023-01-23T12:27:36.360Z,21.40
2023-01-23T12:30:29.345Z,20.35
2023-01-23T12:33:27.663Z,18.83
2023-01-23T12:36:44.208Z,18.55
2023-01-23T12:39:43.466Z,19.33
2023-01-23T12:42:27.354Z,17.63
2023-01-23T12:45:07.072Z,18.45
2023-01-23T12:48:07.226Z,18.05
2023-01-23T12:50:56.931Z,18.30
2023-01-23T12:53:24.217Z,18.10
2023-01-23T12:56:00.002Z,19.13
2023-01-23T12:58:31.693Z,20.17
2023-01-23T13:01:39.318Z,19.50
2023-01-23T13:04:51.539Z,19.58
2023-01-23T13:07:41.313Z,17.13
2023-01-23T13:10:52.345Z,16.40
2023-01-23T13:13:20.767Z,17.02
2023-01-23T13:16:15.509Z,16.95
2023-01-23T13:19:15.930Z,13.10
2023-01-23T13:22:29.077Z,16.10
2023-01-23T13:25:14.426Z,16.05
2023-01-23T13:27:55.843Z,17.25
2023-01-23T13:30:42.909Z,15.85
2023-01-23T13:33:15.760Z,15.82
2023-01-23T13:35:44.747Z,16.00
2023-01-23T13:38:29.558Z,15.20
2023-01-23T13:41:05.375Z,16.35
2023-01-23T13:43:50.168Z,17.17
2023-01-23T14:21:52.442Z,15.32
2023-01-23T14:24:26.698Z,14.30
2023-01-23T14:27:07.535Z,14.70
2023-01-23T14:29:35.801Z,14.93
2023-01-23T14:32:02.983Z,14.10
2023-01-23T14:34:29.779Z,15.27
2023-01-23T14:37:12.582Z,14.40
2023-01-23T14:39:42.331Z,14.40
2023-01-23T14:42:16.490Z,16.27
2023-01-23T14:44:47.625Z,14.98
2023-01-23T14:47:25.923Z,14.68
2023-01-23T14:49:53.925Z,15.25
2023-01-23T14:52:29.056Z,14.73
2023-01-23T14:55:07.656Z,15.02
2023-01-23T14:57:36.399Z,14.20
2023-01-23T15:00:04.387Z,13.25
2023-01-23T15:02:36.410Z,13.18
2023-01-23T15:05:12.916Z,11.50
2023-01-23T15:07:47.995Z,13.05
2023-01-23T15:10:17.694Z,12.70
2023-01-23T15:13:03.463Z,12.43
2023-01-23T15:15:33.441Z,11.77
2023-01-23T15:18:01.769Z,11.90
2023-01-23T15:20:41.245Z,12.10
2023-01-23T15:23:20.839Z,12.70
2023-01-23T15:25:54.620Z,13.00
2023-01-23T15:28:55.885Z,13.45
2023-01-23T15:31:43.131Z,13.35
2023-01-23T15:34:18.980Z,14.25
2023-01-23T15:37:00.711Z,14.18
2023-01-23T15:39:49.887Z,15.10
2023-01-23T15:42:16.620Z,14.32
2023-01-23T15:44:44.399Z,14.18
2023-01-23T15:47:11.556Z,15.70
2023-01-23T15:49:40.734Z,15.20
2023-01-23T15:52:44.416Z,13.98
2023-01-23T15:55:12.167Z,14.52
2023-01-23T15:57:39.352Z,14.50
2023-01-23T16:00:28.411Z,14.45
2023-01-23T16:02:58.121Z,15.23
2023-01-23T16:05:33.569Z,15.00
2023-01-23T16:08:04.883Z,15.52
2023-01-23T16:10:37.557Z,14.75
2023-01-23T16:13:05.157Z,16.35
2023-01-23T16:15:35.255Z,17.52
2023-01-23T16:18:07.337Z,19.63
2023-01-23T16:20:41.564Z,18.33
2023-01-23T16:23:22.992Z,22.65
2023-01-23T16:25:50.527Z,20.65
2023-01-23T16:28:23.947Z,21.13
2023-01-23T16:30:52.139Z,22.65
2023-01-23T16:33:20.495Z,20.23
2023-01-23T16:35:49.696Z,21.67
2023-01-23T16:38:26.646Z,21.92
2023-01-23T16:40:55.052Z,22.02
2023-01-23T16:43:22.774Z,22.75
2023-01-23T16:45:49.652Z,22.52
2023-01-23T16:48:26.330Z,18.95
2023-01-23T16:51:00.454Z,23.55
2023-01-23T16:53:37.839Z,24.00
2023-01-23T16:56:06.570Z,24.33
2023-01-23T16:58:40.117Z,24.70
2023-01-23T17:01:22.569Z,24.77
2023-01-23T17:04:00.308Z,25.40
2023-01-23T17:06:27.365Z,25.73
2023-01-23T17:08:56.229Z,24.90
2023-01-23T17:11:29.016Z,27.17
2023-01-23T17:14:03.688Z,26.75
2023-01-23T17:16:31.093Z,25.58
2023-01-23T17:19:01.407Z,25.98
2023-01-23T17:21:34.263Z,27.73
2023-01-23T17:24:01.088Z,24.90
2023-01-23T17:26:27.919Z,27.52
2023-01-23T17:28:55.261Z,29.77
2023-01-23T17:31:26.397Z,28.40
2023-01-23T17:33:53.915Z,25.15
2023-01-23T17:36:20.678Z,24.50
2023-01-23T17:38:47.737Z,25.27
2023-01-23T17:41:16.611Z,25.58
2023-01-23T17:43:44.803Z,23.58
2023-01-23T17:46:26.968Z,27.40
2023-01-23T17:48:55.845Z,23.55
2023-01-23T17:51:24.106Z,27.08
2023-01-23T17:53:51.647Z,26.58
2023-01-23T17:56:18.906Z,26.02
2023-01-23T17:58:46.117Z,26.08
2023-01-23T18:01:23.444Z,26.92
2023-01-23T18:03:51.672Z,26.05
2023-01-23T18:06:19.557Z,32.17
2023-01-23T18:08:46.487Z,32.25
2023-01-23T18:11:20.647Z,31.58
2023-01-23T18:14:06.237Z,26.83
2023-01-23T18:16:45.650Z,27.35
2023-01-23T18:19:20.213Z,27.67
2023-01-23T18:21:50.951Z,26.85
2023-01-23T18:24:30.615Z,28.27
2023-01-23T18:27:00.408Z,28.25
2023-01-23T18:30:17.026Z,28.98
2023-01-23T18:32:55.988Z,29.42
2023-01-23T18:36:07.402Z,30.13
2023-01-23T18:39:23.910Z,29.67
2023-01-23T18:42:17.323Z,31.85
2023-01-23T18:44:55.522Z,29.00
2023-01-23T18:47:22.624Z,28.00
2023-01-23T18:49:49.632Z,28.80
2023-01-23T18:52:25.424Z,28.88
2023-01-23T18:54:58.783Z,30.15
2023-01-23T18:57:56.543Z,28.85
2023-01-23T19:00:34.341Z,31.13
2023-01-23T19:03:16.657Z,33.15
2023-01-23T19:05:45.512Z,36.38
2023-01-23T19:08:30.822Z,35.90
2023-01-23T19:11:06.696Z,29.92
2023-01-23T19:14:16.585Z,33.33
2023-01-23T19:17:08.674Z,32.20
2023-01-23T19:19:55.601Z,33.72
2023-01-23T19:22:25.131Z,34.17
2023-01-23T19:24:52.293Z,33.00
2023-01-23T19:27:23.685Z,35.72
2023-01-23T19:29:50.732Z,36.47
2023-01-23T19:32:18.012Z,35.80
2023-01-23T19:34:44.796Z,36.88
2023-01-23T19:37:11.804Z,34.42
2023-01-23T19:39:38.701Z,33.60
2023-01-23T19:42:05.521Z,31.65
2023-01-23T19:44:33.289Z,33.60
2023-01-23T19:47:00.205Z,37.83
2023-01-23T19:49:27.429Z,37.90
2023-01-23T19:51:54.209Z,37.63
2023-01-23T19:54:23.975Z,37.22
2023-01-23T19:56:51.369Z,35.53
2023-01-23T19:59:18.283Z,36.78
2023-01-23T20:01:48.629Z,33.22
2023-01-23T20:04:20.811Z,37.45
2023-01-23T20:06:54.469Z,38.70
2023-01-23T20:09:22.056Z,36.40
2023-01-23T20:11:49.489Z,41.13
2023-01-23T20:14:16.359Z,41.30
2023-01-23T20:16:43.668Z,39.20
2023-01-23T20:19:15.723Z,38.75
2023-01-23T20:21:43.082Z,38.28
2023-01-23T20:24:10.302Z,34.85
2023-01-23T20:26:38.284Z,35.88
2023-01-23T20:29:05.532Z,36.08
2023-01-23T20:31:33.136Z,36.50
2023-01-23T20:34:00.161Z,34.00
2023-01-23T20:36:27.727Z,34.28
2023-01-23T20:38:56.496Z,36.78
2023-01-23T20:41:23.450Z,33.45
2023-01-23T20:43:50.492Z,34.97
2023-01-23T20:46:19.464Z,33.28
2023-01-23T20:48:46.484Z,31.55
2023-01-23T20:51:15.937Z,34.20
2023-01-23T20:53:43.614Z,33.25
2023-01-23T20:56:11.472Z,32.65
2023-01-23T20:59:00.705Z,34.55
2023-01-23T21:01:57.648Z,37.90
2023-01-23T21:04:29.111Z,39.20
2023-01-23T21:06:56.794Z,37.13
2023-01-23T21:09:24.161Z,35.67
2023-01-23T21:11:52.079Z,35.28
2023-01-23T21:14:19.957Z,35.03
2023-01-23T21:16:47.973Z,32.20
2023-01-23T21:19:16.189Z,33.20
2023-01-23T21:21:43.529Z,29.65
2023-01-23T21:24:10.631Z,31.00
2023-01-23T21:26:37.692Z,33.60
2023-01-23T21:29:05.585Z,34.05
2023-01-23T21:31:35.838Z,34.03
2023-01-23T21:34:06.467Z,33.40
2023-01-23T21:36:33.284Z,29.88
2023-01-23T21:39:00.147Z,37.40
2023-01-23T21:41:27.091Z,34.28
2023-01-23T21:43:53.914Z,30.83
2023-01-23T21:46:20.803Z,30.17
2023-01-23T21:48:47.551Z,34.65
2023-01-23T21:51:19.110Z,36.10
2023-01-23T21:53:48.246Z,36.90
2023-01-23T21:56:21.061Z,38.03
2023-01-23T21:58:48.899Z,35.17
2023-01-23T22:01:32.670Z,35.58
2023-01-23T22:04:15.333Z,35.42
2023-01-23T22:06:44.213Z,36.25
2023-01-23T22:09:16.791Z,33.03
2023-01-23T22:11:44.674Z,32.22
2023-01-23T22:14:11.564Z,36.00
2023-01-23T22:16:50.311Z,38.95
2023-01-23T22:19:24.663Z,39.28
2023-01-23T22:21:54.223Z,39.85
2023-01-23T22:24:21.259Z,37.38
2023-01-23T22:26:48.125Z,37.78
2023-01-23T22:29:15.229Z,40.38
2023-01-23T22:31:42.888Z,36.33
2023-01-23T22:34:09.860Z,38.17
2023-01-23T22:36:36.785Z,38.58
2023-01-23T22:39:04.329Z,36.95
2023-01-23T22:41:31.343Z,37.05
2023-01-23T22:43:59.497Z,40.85
2023-01-23T22:46:27.566Z,37.83
2023-01-23T22:48:54.682Z,39.90
2023-01-23T22:51:27.657Z,42.10
2023-01-23T22:53:56.396Z,43.25
2023-01-23T22:56:24.755Z,40.25
2023-01-23T22:58:54.509Z,42.97
2023-01-23T23:01:23.572Z,42.25
2023-01-23T23:03:50.638Z,42.08
2023-01-23T23:06:18.188Z,41.28
2023-01-23T23:08:47.622Z,36.78
2023-01-23T23:11:27.208Z,38.63
2023-01-23T23:13:56.628Z,43.28
2023-01-23T23:16:27.987Z,39.45
2023-01-23T23:18:57.833Z,39.10
2023-01-23T23:21:31.772Z,43.53
2023-01-23T23:24:00.718Z,38.15
2023-01-23T23:26:31.476Z,45.67
2023-01-23T23:29:01.122Z,45.30
2023-01-23T23:31:28.238Z,40.40
2023-01-23T23:33:55.513Z,44.28
2023-01-23T23:36:22.653Z,44.47
2023-01-23T23:38:49.656Z,46.65
2023-01-23T23:41:18.217Z,49.78
2023-01-23T23:43:45.348Z,49.78
2023-01-23T23:46:14.091Z,44.10
2023-01-23T23:48:41.206Z,45.55
2023-01-23T23:51:11.521Z,38.47
2023-01-23T23:53:39.105Z,41.63
2023-01-23T23:56:07.200Z,39.00
2023-01-23T23:58:37.503Z,36.10
